createdAt,value
2023-03-29T00:01:54.605Z,111.20
2023-03-29T00:04:27.822Z,102.50
2023-03-29T00:06:57.227Z,93.30
2023-03-29T00:09:26.943Z,100.20
2023-03-29T00:11:55.932Z,97.90
2023-03-29T00:14:30.787Z,97.60
2023-03-29T00:17:00.383Z,94.00
2023-03-29T00:19:32.239Z,86.20
2023-03-29T00:22:02.976Z,95.30
2023-03-29T00:24:32.282Z,90.30
2023-03-29T00:27:01.684Z,87.50
2023-03-29T00:29:30.748Z,92.30
2023-03-29T00:31:59.688Z,82.60
2023-03-29T00:34:31.951Z,98.00
2023-03-29T00:37:00.951Z,82.30
2023-03-29T00:39:30.970Z,75.80
2023-03-29T00:41:59.873Z,90.60
2023-03-29T00:44:59.869Z,104.00
2023-03-29T00:47:45.003Z,103.50
2023-03-29T00:50:18.872Z,109.40
2023-03-29T00:53:07.351Z,112.00
2023-03-29T00:55:43.003Z,99.10
2023-03-29T00:58:16.034Z,107.00
2023-03-29T01:00:52.302Z,111.60
2023-03-29T01:03:28.193Z,118.40
2023-03-29T01:06:02.560Z,116.80
2023-03-29T01:08:47.749Z,113.70
2023-03-29T01:11:41.135Z,107.80
2023-03-29T01:14:28.808Z,93.00
2023-03-29T01:16:58.028Z,85.00
2023-03-29T01:19:33.099Z,92.50
2023-03-29T01:22:26.186Z,100.30
2023-03-29T01:25:04.294Z,94.70
2023-03-29T01:27:56.114Z,93.60
2023-03-29T01:30:37.699Z,97.90
2023-03-29T01:33:13.146Z,97.00
2023-03-29T01:35:46.907Z,97.10
2023-03-29T01:38:32.425Z,107.60
2023-03-29T01:41:03.904Z,103.50
2023-03-29T01:43:57.003Z,111.40
2023-03-29T01:46:36.522Z,106.20
2023-03-29T01:49:22.543Z,104.40
2023-03-29T01:52:03.924Z,106.10
2023-03-29T01:54:41.825Z,110.60
2023-03-29T01:57:14.553Z,107.80
2023-03-29T01:59:45.995Z,114.90
2023-03-29T02:02:18.848Z,108.30
2023-03-29T02:04:53.833Z,99.20
2023-03-29T02:07:26.867Z,114.30
2023-03-29T02:09:57.530Z,112.10
2023-03-29T02:12:27.220Z,102.80
2023-03-29T02:14:58.820Z,98.80
2023-03-29T02:17:28.579Z,93.30
2023-03-29T02:20:10.309Z,88.10
2023-03-29T02:22:47.200Z,93.60
2023-03-29T02:25:17.628Z,94.30
2023-03-29T02:27:46.685Z,87.40
2023-03-29T02:30:19.354Z,75.70
2023-03-29T02:33:05.984Z,85.00
2023-03-29T02:35:41.038Z,104.20
2023-03-29T02:38:14.817Z,102.70
2023-03-29T02:40:47.004Z,108.20
2023-03-29T02:43:17.203Z,108.70
2023-03-29T02:45:47.434Z,108.10
2023-03-29T02:48:20.823Z,112.90
2023-03-29T02:50:54.121Z,114.70
2023-03-29T02:53:29.235Z,103.90
2023-03-29T02:56:02.395Z,89.70
2023-03-29T02:58:31.957Z,88.80
2023-03-29T03:01:02.532Z,88.70
2023-03-29T03:03:32.092Z,90.90
2023-03-29T03:06:01.859Z,88.40
2023-03-29T03:08:31.225Z,80.90
2023-03-29T03:11:00.458Z,77.10
2023-03-29T03:13:29.629Z,75.90
2023-03-29T03:15:58.630Z,76.70
2023-03-29T03:18:27.932Z,70.30
2023-03-29T03:20:59.601Z,67.50
2023-03-29T03:23:28.799Z,60.70
2023-03-29T03:25:59.284Z,62.50
2023-03-29T03:28:28.922Z,60.20
2023-03-29T03:30:58.228Z,54.10
2023-03-29T03:33:28.307Z,55.40
2023-03-29T03:36:02.930Z,61.50
2023-03-29T03:38:33.367Z,52.80
2023-03-29T03:41:02.748Z,51.80
2023-03-29T03:43:31.991Z,53.20
2023-03-29T03:46:01.682Z,48.50
2023-03-29T03:48:30.833Z,70.00
2023-03-29T03:50:59.936Z,80.10
2023-03-29T03:53:29.029Z,69.60
2023-03-29T03:55:58.229Z,65.80
2023-03-29T03:58:27.232Z,72.20
2023-03-29T04:00:56.121Z,73.50
2023-03-29T04:03:25.137Z,74.10
2023-03-29T04:05:54.150Z,73.40
2023-03-29T04:08:23.066Z,64.00
2023-03-29T04:10:56.888Z,64.30
2023-03-29T04:13:27.304Z,56.30
2023-03-29T04:15:58.237Z,47.60
2023-03-29T04:18:29.210Z,42.70
2023-03-29T04:20:58.454Z,28.60
2023-03-29T04:23:27.390Z,39.30
2023-03-29T04:25:56.875Z,44.10
2023-03-29T04:28:25.851Z,41.90
2023-03-29T04:30:54.847Z,36.10
2023-03-29T04:33:23.777Z,30.70
2023-03-29T04:35:52.887Z,30.30
2023-03-29T04:38:23.425Z,37.70
2023-03-29T04:40:55.081Z,37.60
2023-03-29T04:43:24.086Z,39.20
2023-03-29T04:45:53.064Z,35.60
2023-03-29T04:48:22.706Z,32.30
2023-03-29T04:50:52.377Z,38.50
2023-03-29T04:53:22.360Z,40.50
2023-03-29T04:55:51.461Z,34.30
2023-03-29T04:58:22.535Z,34.70
2023-03-29T05:00:56.007Z,41.70
2023-03-29T05:03:25.650Z,30.30
2023-03-29T05:05:54.744Z,28.00
2023-03-29T05:08:24.330Z,28.10
2023-03-29T05:10:53.231Z,21.30
2023-03-29T05:13:22.230Z,19.80
2023-03-29T05:15:52.791Z,26.60
2023-03-29T05:18:22.370Z,13.30
2023-03-29T05:20:53.262Z,24.40
2023-03-29T05:23:23.841Z,21.50
2023-03-29T05:25:55.609Z,24.10
2023-03-29T05:28:24.746Z,12.50
2023-03-29T05:31:02.422Z,13.30
2023-03-29T05:33:31.761Z,16.20
2023-03-29T05:36:03.702Z,15.70
2023-03-29T05:38:35.934Z,15.00
2023-03-29T05:41:06.405Z,26.60
2023-03-29T05:43:35.459Z,26.20
2023-03-29T05:46:05.906Z,22.60
2023-03-29T05:48:36.526Z,20.20
2023-03-29T05:51:05.939Z,23.50
2023-03-29T05:53:35.443Z,34.20
2023-03-29T05:56:04.793Z,24.40
2023-03-29T05:58:33.843Z,31.80
2023-03-29T06:01:04.745Z,32.30
2023-03-29T06:03:34.097Z,30.20
2023-03-29T06:06:04.429Z,29.60
2023-03-29T06:08:35.256Z,33.50
2023-03-29T06:11:06.708Z,31.40
2023-03-29T06:13:37.238Z,47.80
2023-03-29T06:16:06.895Z,24.90
2023-03-29T06:18:36.835Z,27.10
2023-03-29T06:21:08.076Z,19.10
2023-03-29T06:23:37.189Z,17.30
2023-03-29T06:26:06.838Z,38.20
2023-03-29T06:28:35.833Z,32.90
2023-03-29T06:31:05.696Z,34.60
2023-03-29T06:33:37.306Z,56.70
2023-03-29T06:36:06.981Z,37.40
2023-03-29T06:38:36.444Z,51.50
2023-03-29T06:41:07.931Z,34.90
2023-03-29T06:43:37.916Z,52.50
2023-03-29T06:46:12.430Z,57.10
2023-03-29T06:48:41.830Z,55.20
2023-03-29T06:51:10.836Z,61.40
2023-03-29T06:53:39.827Z,45.90
2023-03-29T06:56:09.880Z,36.80
2023-03-29T06:58:39.466Z,50.40
2023-03-29T07:01:08.470Z,60.40
2023-03-29T07:03:39.370Z,44.70
2023-03-29T07:06:12.501Z,69.30
2023-03-29T07:08:45.282Z,60.10
2023-03-29T07:11:15.293Z,34.30
2023-03-29T07:13:44.928Z,28.30
2023-03-29T07:16:14.123Z,23.80
2023-03-29T07:18:44.348Z,22.00
2023-03-29T07:21:13.642Z,13.40
2023-03-29T07:23:42.936Z,16.20
2023-03-29T07:26:12.651Z,14.60
2023-03-29T07:28:42.605Z,15.70
2023-03-29T07:31:12.284Z,12.70
2023-03-29T07:33:41.798Z,9.50
2023-03-29T07:36:12.183Z,15.20
2023-03-29T07:38:41.934Z,13.80
2023-03-29T07:41:10.921Z,16.80
2023-03-29T07:43:39.937Z,17.40
2023-03-29T07:46:10.276Z,19.80
2023-03-29T07:48:39.468Z,13.70
2023-03-29T07:51:08.690Z,16.60
2023-03-29T07:53:38.675Z,17.50
2023-03-29T07:56:09.036Z,14.80
2023-03-29T07:58:38.052Z,12.80
2023-03-29T08:01:08.547Z,12.80
2023-03-29T08:03:37.609Z,13.80
2023-03-29T08:06:07.018Z,11.20
2023-03-29T08:08:36.830Z,14.40
2023-03-29T08:11:08.972Z,8.80
2023-03-29T08:13:37.927Z,14.00
2023-03-29T08:16:07.694Z,14.30
2023-03-29T08:18:36.611Z,14.00
2023-03-29T08:21:05.870Z,12.60
2023-03-29T08:23:35.763Z,8.30
2023-03-29T08:26:04.943Z,10.50
2023-03-29T08:28:33.826Z,10.50
2023-03-29T08:31:03.101Z,12.20
2023-03-29T08:33:32.594Z,8.90
2023-03-29T08:36:02.098Z,11.10
2023-03-29T08:38:31.184Z,9.60
2023-03-29T08:41:00.959Z,7.40
2023-03-29T08:43:36.121Z,8.60
2023-03-29T08:46:40.658Z,7.80
2023-03-29T08:49:12.519Z,7.90
2023-03-29T08:51:47.884Z,8.20
2023-03-29T08:54:28.262Z,10.30
2023-03-29T08:57:08.572Z,9.10
2023-03-29T08:59:39.618Z,8.00
2023-03-29T09:02:17.886Z,11.70
2023-03-29T09:04:48.701Z,7.30
2023-03-29T09:07:17.871Z,6.20
2023-03-29T09:09:46.894Z,8.50
2023-03-29T09:12:48.911Z,6.00
2023-03-29T09:15:42.566Z,8.80
2023-03-29T09:18:22.088Z,5.00
2023-03-29T09:20:59.141Z,7.80
2023-03-29T09:23:58.287Z,5.70
2023-03-29T09:26:59.728Z,8.20
2023-03-29T09:29:37.751Z,6.00
2023-03-29T09:32:19.705Z,7.50
2023-03-29T09:35:14.437Z,7.80
2023-03-29T09:37:43.395Z,7.10
2023-03-29T09:40:17.807Z,6.80
2023-03-29T09:42:51.151Z,8.20
2023-03-29T09:45:20.321Z,7.10
2023-03-29T09:47:58.201Z,6.70
2023-03-29T09:50:35.406Z,8.00
2023-03-29T09:53:05.627Z,9.00
2023-03-29T09:55:37.343Z,7.20
2023-03-29T09:58:32.933Z,11.10
2023-03-29T10:01:08.919Z,6.10
2023-03-29T10:03:39.963Z,7.80
2023-03-29T10:06:12.674Z,5.00
2023-03-29T10:08:51.838Z,7.10
2023-03-29T10:11:29.006Z,5.80
2023-03-29T10:14:03.089Z,8.90
2023-03-29T10:16:42.534Z,6.50
2023-03-29T10:19:23.365Z,10.20
2023-03-29T10:21:54.077Z,7.70
2023-03-29T10:24:25.746Z,6.70
2023-03-29T10:27:00.244Z,8.30
2023-03-29T10:29:42.721Z,8.70
2023-03-29T10:32:17.540Z,8.50
2023-03-29T10:34:47.931Z,7.50
2023-03-29T10:37:19.666Z,12.10
2023-03-29T10:39:49.132Z,13.90
2023-03-29T10:42:23.792Z,11.60
2023-03-29T10:44:58.442Z,13.20
2023-03-29T10:47:31.743Z,6.70
2023-03-29T10:50:01.628Z,6.10
2023-03-29T10:52:30.609Z,5.40
2023-03-29T10:55:00.556Z,7.70
2023-03-29T10:57:58.827Z,11.70
2023-03-29T11:00:56.956Z,4.80
2023-03-29T11:03:33.930Z,10.70
2023-03-29T11:06:21.156Z,7.90
2023-03-29T11:08:57.610Z,8.50
2023-03-29T11:11:47.981Z,8.40
2023-03-29T11:14:41.453Z,12.30
2023-03-29T11:17:19.492Z,6.70
2023-03-29T11:19:56.650Z,5.30
2023-03-29T11:22:36.584Z,5.20
2023-03-29T11:25:30.188Z,9.10
2023-03-29T11:28:05.266Z,6.70
2023-03-29T11:30:48.451Z,7.50
2023-03-29T11:33:34.633Z,11.00
2023-03-29T11:36:33.841Z,7.00
2023-03-29T11:39:22.313Z,6.60
2023-03-29T11:41:56.431Z,6.40
2023-03-29T11:44:30.529Z,5.10
2023-03-29T11:47:05.173Z,8.30
2023-03-29T11:49:41.852Z,7.20
2023-03-29T11:52:24.559Z,6.40
2023-03-29T11:54:56.172Z,9.50
2023-03-29T11:57:39.146Z,6.50
2023-03-29T12:00:15.795Z,4.70
2023-03-29T12:02:48.288Z,5.80
2023-03-29T12:05:27.510Z,5.70
2023-03-29T12:08:00.086Z,3.80
2023-03-29T12:11:01.539Z,6.20
2023-03-29T12:13:36.905Z,4.80
2023-03-29T12:16:23.958Z,8.50
2023-03-29T12:18:58.283Z,6.20
2023-03-29T12:21:30.054Z,5.60
2023-03-29T12:23:59.037Z,4.10
2023-03-29T12:26:46.036Z,5.20
2023-03-29T12:29:33.791Z,8.00
2023-03-29T12:32:15.089Z,5.60
2023-03-29T12:34:53.102Z,6.00
2023-03-29T12:37:36.293Z,7.70
2023-03-29T12:40:17.744Z,6.40
2023-03-29T12:43:07.046Z,6.50
2023-03-29T12:45:43.049Z,4.40
2023-03-29T12:48:19.051Z,6.40
2023-03-29T12:51:01.224Z,6.50
2023-03-29T12:53:43.491Z,6.60
2023-03-29T12:56:16.357Z,9.30
2023-03-29T12:59:17.745Z,6.70
2023-03-29T13:02:00.294Z,8.90
2023-03-29T13:05:25.077Z,7.40
2023-03-29T13:07:56.092Z,4.90
2023-03-29T13:10:37.891Z,5.60
2023-03-29T13:13:30.913Z,8.10
2023-03-29T13:16:18.819Z,8.40
2023-03-29T13:19:08.268Z,10.50
2023-03-29T13:21:46.556Z,9.90
2023-03-29T13:25:04.422Z,11.10
2023-03-29T13:27:48.835Z,14.60
2023-03-29T13:30:46.190Z,10.40
2023-03-29T13:33:38.266Z,11.40
2023-03-29T13:36:37.585Z,7.40
2023-03-29T13:39:07.612Z,4.90
2023-03-29T13:41:39.098Z,4.80
2023-03-29T13:44:38.913Z,11.60
2023-03-29T13:47:19.687Z,8.10
2023-03-29T13:49:54.791Z,7.20
2023-03-29T13:52:51.403Z,5.80
2023-03-29T13:55:27.055Z,4.40
2023-03-29T13:58:02.779Z,9.00
2023-03-29T14:00:40.180Z,8.10
2023-03-29T14:03:15.652Z,8.00
2023-03-29T14:05:50.816Z,8.10
2023-03-29T14:08:39.455Z,9.00
2023-03-29T14:11:19.916Z,5.20
2023-03-29T14:13:52.835Z,5.40
2023-03-29T14:16:22.249Z,7.50
2023-03-29T14:18:52.367Z,8.10
2023-03-29T14:21:21.750Z,5.60
2023-03-29T14:23:55.859Z,4.50
2023-03-29T14:26:30.682Z,9.20
2023-03-29T14:29:01.468Z,3.70
2023-03-29T14:31:33.554Z,7.70
2023-03-29T14:34:06.812Z,10.20
2023-03-29T14:36:36.495Z,9.00
2023-03-29T14:39:23.840Z,6.90
2023-03-29T14:41:59.675Z,5.50
2023-03-29T14:44:33.233Z,5.50
2023-03-29T14:47:03.414Z,7.70
2023-03-29T14:49:32.747Z,8.10
2023-03-29T14:52:02.351Z,7.60
2023-03-29T14:54:34.867Z,10.00
2023-03-29T14:57:07.403Z,13.70
2023-03-29T14:59:42.931Z,11.20
2023-03-29T15:02:48.590Z,8.20
2023-03-29T15:06:04.215Z,17.50
2023-03-29T15:08:38.578Z,11.40
2023-03-29T15:11:18.929Z,9.60
2023-03-29T15:13:49.305Z,15.50
2023-03-29T15:16:22.799Z,6.20
2023-03-29T15:18:53.027Z,17.90
2023-03-29T15:21:23.008Z,9.30
2023-03-29T15:24:03.429Z,9.20
2023-03-29T15:26:35.324Z,11.60
2023-03-29T15:29:23.335Z,11.40
2023-03-29T15:31:57.411Z,9.60
2023-03-29T15:34:29.537Z,6.80
2023-03-29T15:36:59.207Z,7.50
2023-03-29T15:39:29.593Z,5.20
2023-03-29T15:41:58.786Z,10.80
2023-03-29T15:44:32.555Z,5.80
2023-03-29T15:47:01.657Z,8.40
2023-03-29T15:49:30.789Z,6.30
2023-03-29T15:51:59.723Z,7.70
2023-03-29T15:54:31.132Z,6.70
2023-03-29T15:57:07.362Z,7.20
2023-03-29T15:59:36.691Z,6.10
2023-03-29T16:02:06.389Z,6.90
2023-03-29T16:04:35.414Z,6.30
2023-03-29T16:07:10.962Z,4.90
2023-03-29T16:09:39.929Z,4.80
2023-03-29T16:12:10.334Z,6.70
2023-03-29T16:14:39.586Z,4.70
2023-03-29T16:17:08.454Z,8.20
2023-03-29T16:19:37.819Z,4.50
2023-03-29T16:22:07.592Z,7.20
2023-03-29T16:24:36.860Z,7.70
2023-03-29T16:27:05.922Z,6.70
2023-03-29T16:29:35.067Z,4.60
2023-03-29T16:32:06.620Z,9.10
2023-03-29T16:34:36.119Z,9.40
2023-03-29T16:37:05.166Z,7.60
2023-03-29T16:39:34.479Z,6.70
2023-03-29T16:42:04.007Z,4.70
2023-03-29T16:44:32.933Z,4.20
2023-03-29T16:47:02.180Z,12.90
2023-03-29T16:49:31.381Z,13.00
2023-03-29T16:52:00.256Z,8.50
2023-03-29T16:54:29.735Z,6.60
2023-03-29T16:56:59.040Z,15.20
2023-03-29T16:59:27.983Z,10.30
2023-03-29T17:01:57.025Z,8.50
2023-03-29T17:04:26.461Z,7.20
2023-03-29T17:06:55.834Z,7.90
2023-03-29T17:09:25.812Z,12.60
2023-03-29T17:11:56.140Z,10.80
2023-03-29T17:14:25.589Z,11.30
2023-03-29T17:16:54.542Z,15.70
2023-03-29T17:19:23.465Z,18.90
2023-03-29T17:21:52.398Z,17.70
2023-03-29T17:24:21.469Z,17.80
2023-03-29T17:26:50.633Z,15.00
2023-03-29T17:29:19.630Z,17.80
2023-03-29T17:31:48.678Z,11.30
2023-03-29T17:34:19.420Z,11.40
2023-03-29T17:36:49.110Z,13.30
2023-03-29T17:39:18.879Z,14.40
2023-03-29T17:41:48.210Z,13.30
2023-03-29T17:44:17.230Z,13.00
2023-03-29T17:46:46.791Z,14.80
2023-03-29T17:49:15.809Z,10.20
2023-03-29T17:51:44.808Z,20.30
2023-03-29T17:54:13.802Z,14.00
2023-03-29T17:56:42.817Z,14.20
2023-03-29T17:59:11.802Z,16.50
2023-03-29T18:01:40.932Z,18.00
2023-03-29T18:04:10.717Z,21.20
2023-03-29T18:06:39.817Z,28.50
2023-03-29T18:09:10.395Z,90.90
2023-03-29T18:11:39.526Z,66.10
2023-03-29T18:14:08.429Z,57.70
2023-03-29T18:16:37.473Z,59.10
2023-03-29T18:19:06.543Z,52.00
2023-03-29T18:21:35.563Z,51.50
2023-03-29T18:24:04.555Z,57.50
2023-03-29T18:26:33.572Z,59.60
2023-03-29T18:29:02.463Z,63.20
2023-03-29T18:31:31.418Z,57.40
2023-03-29T18:34:00.615Z,62.20
2023-03-29T18:36:30.477Z,51.10
2023-03-29T18:39:05.826Z,55.90
2023-03-29T18:41:37.304Z,87.00
2023-03-29T18:44:07.875Z,84.60
2023-03-29T18:46:37.311Z,90.00
2023-03-29T18:49:07.876Z,85.30
2023-03-29T18:51:36.832Z,55.70
2023-03-29T18:54:06.171Z,37.00
2023-03-29T18:56:36.007Z,32.30
2023-03-29T18:59:06.504Z,26.10
2023-03-29T19:01:35.973Z,17.20
2023-03-29T19:04:05.716Z,17.30
2023-03-29T19:06:34.753Z,21.30
2023-03-29T19:09:05.477Z,18.40
2023-03-29T19:11:36.137Z,16.20
2023-03-29T19:14:08.373Z,14.90
2023-03-29T19:16:37.357Z,11.50
2023-03-29T19:19:07.293Z,10.10
2023-03-29T19:21:36.940Z,12.50
2023-03-29T19:24:07.861Z,13.00
2023-03-29T19:26:37.441Z,15.00
2023-03-29T19:29:06.401Z,21.00
2023-03-29T19:31:37.924Z,41.80
2023-03-29T19:34:09.677Z,43.90
2023-03-29T19:36:38.775Z,55.30
2023-03-29T19:39:07.751Z,40.80
2023-03-29T19:41:36.738Z,25.50
2023-03-29T19:44:05.923Z,23.70
2023-03-29T19:46:34.929Z,18.20
2023-03-29T19:49:05.675Z,16.40
2023-03-29T19:51:34.774Z,16.70
2023-03-29T19:54:03.844Z,17.70
2023-03-29T19:56:33.457Z,17.50
2023-03-29T19:59:02.449Z,10.60
2023-03-29T20:01:32.444Z,14.20
2023-03-29T20:04:02.605Z,12.60
2023-03-29T20:06:31.693Z,15.60
2023-03-29T20:09:00.701Z,12.90
2023-03-29T20:11:29.693Z,15.40
2023-03-29T20:13:58.692Z,17.50
2023-03-29T20:16:27.810Z,15.30
2023-03-29T20:18:56.804Z,16.00
2023-03-29T20:21:25.714Z,11.30
2023-03-29T20:23:56.144Z,13.30
2023-03-29T20:26:25.630Z,19.00
2023-03-29T20:28:54.553Z,17.80
2023-03-29T20:31:23.864Z,20.10
2023-03-29T20:33:53.644Z,18.80
2023-03-29T20:36:23.476Z,23.90
2023-03-29T20:38:55.328Z,23.20
2023-03-29T20:41:24.405Z,30.00
2023-03-29T20:43:59.034Z,26.00
2023-03-29T20:46:35.072Z,27.20
2023-03-29T20:49:07.434Z,35.30
2023-03-29T20:51:38.001Z,29.70
2023-03-29T20:54:10.032Z,23.60
2023-03-29T20:56:40.163Z,23.40
2023-03-29T20:59:12.250Z,27.90
2023-03-29T21:01:42.489Z,41.50
2023-03-29T21:04:11.536Z,30.70
2023-03-29T21:06:40.514Z,32.50
2023-03-29T21:09:09.478Z,32.00
2023-03-29T21:11:38.680Z,37.30
2023-03-29T21:14:09.554Z,28.80
2023-03-29T21:16:41.912Z,30.40
2023-03-29T21:19:11.004Z,29.00
2023-03-29T21:21:41.647Z,29.00
2023-03-29T21:24:13.547Z,29.90
2023-03-29T21:26:42.594Z,31.80
2023-03-29T21:29:11.589Z,29.60
2023-03-29T21:31:40.952Z,38.40
2023-03-29T21:34:10.203Z,40.60
2023-03-29T21:36:39.910Z,40.80
2023-03-29T21:39:08.804Z,41.30
2023-03-29T21:41:37.870Z,44.60
2023-03-29T21:44:07.012Z,46.50
2023-03-29T21:46:36.155Z,44.60
2023-03-29T21:49:05.180Z,37.80
2023-03-29T21:51:34.197Z,33.60
2023-03-29T21:54:03.402Z,34.60
2023-03-29T21:56:32.335Z,36.50
2023-03-29T21:59:01.401Z,42.40
2023-03-29T22:01:31.063Z,51.10
2023-03-29T22:04:00.020Z,61.50
2023-03-29T22:06:29.005Z,56.40
2023-03-29T22:09:00.885Z,61.90
2023-03-29T22:11:31.197Z,66.00
2023-03-29T22:14:00.309Z,62.00
2023-03-29T22:16:31.497Z,86.10
2023-03-29T22:19:00.539Z,110.90
2023-03-29T22:21:32.606Z,129.20
2023-03-29T22:24:01.726Z,112.10
2023-03-29T22:26:32.654Z,99.10
2023-03-29T22:29:01.728Z,87.00
2023-03-29T22:31:32.020Z,70.80
2023-03-29T22:34:02.871Z,59.30
2023-03-29T22:36:32.011Z,51.90
2023-03-29T22:39:00.990Z,53.40
2023-03-29T22:41:30.109Z,57.90
2023-03-29T22:44:02.893Z,56.60
2023-03-29T22:46:31.992Z,54.30
2023-03-29T22:49:00.991Z,54.80
2023-03-29T22:51:30.099Z,44.30
2023-03-29T22:53:59.495Z,44.20
2023-03-29T22:56:28.703Z,38.80
2023-03-29T22:58:57.564Z,42.90
2023-03-29T23:01:26.757Z,44.50
2023-03-29T23:03:55.799Z,56.70
2023-03-29T23:06:24.770Z,64.50
2023-03-29T23:08:53.727Z,67.10
2023-03-29T23:11:22.939Z,65.80
2023-03-29T23:13:52.629Z,63.80
2023-03-29T23:16:21.820Z,69.40
2023-03-29T23:18:50.875Z,75.50
2023-03-29T23:21:19.769Z,69.00
2023-03-29T23:23:49.514Z,68.80
2023-03-29T23:26:18.645Z,65.80
2023-03-29T23:28:47.629Z,65.40
2023-03-29T23:31:18.718Z,64.90
2023-03-29T23:33:47.755Z,68.30
2023-03-29T23:36:18.363Z,68.50
2023-03-29T23:38:47.989Z,63.90
2023-03-29T23:41:17.876Z,65.70
2023-03-29T23:43:50.222Z,72.80
2023-03-29T23:46:29.167Z,70.10
2023-03-29T23:49:00.059Z,63.90
2023-03-29T23:51:30.745Z,55.40
2023-03-29T23:53:59.611Z,42.90
2023-03-29T23:56:29.128Z,42.00
2023-03-29T23:58:58.077Z,33.80
